Time;durP1;ratioP1;P1;durP2;ratioP2;P2;SDS_P1;SDS_P2;PMS_P1;PMS_P2;Temp;Humidity;BMP_temperature;BMP_pressure;BME280_temperature;BME280_humidity;BME280_pressure;Samples;Min_cycle;Max_cycle;Signal;HPM_P1;HPM_P2
2021/07/04 00:02:09;;;;;;;13.07;6.17;;;18.90;98.30;;;;;;5111783;28;20196;-83
2021/07/04 00:04:35;;;;;;;14.90;6.13;;;18.90;98.30;;;;;;5111623;28;20433;-84
2021/07/04 00:07:01;;;;;;;15.20;6.83;;;19.00;98.10;;;;;;5111586;28;20178;-83
2021/07/04 00:09:27;;;;;;;10.68;6.40;;;19.00;97.90;;;;;;5111366;28;20259;-84
2021/07/04 00:11:53;;;;;;;10.70;6.33;;;19.00;98.10;;;;;;5111399;28;20581;-84
2021/07/04 00:14:18;;;;;;;8.43;6.17;;;18.90;98.40;;;;;;5111587;28;20799;-84
2021/07/04 00:16:45;;;;;;;11.80;6.70;;;18.90;98.40;;;;;;5111205;28;20294;-84
2021/07/04 00:19:11;;;;;;;14.05;6.93;;;19.00;98.50;;;;;;5111680;28;20451;-84
2021/07/04 00:21:37;;;;;;;13.90;6.95;;;19.00;98.60;;;;;;5111327;28;20167;-84
2021/07/04 00:24:03;;;;;;;11.30;6.00;;;19.00;98.40;;;;;;5111171;28;20602;-84
2021/07/04 00:26:29;;;;;;;12.05;6.30;;;19.00;98.30;;;;;;5111175;28;20433;-84
2021/07/04 00:28:55;;;;;;;10.20;5.93;;;19.10;98.00;;;;;;5095508;28;20172;-84
2021/07/04 00:31:20;;;;;;;13.10;7.30;;;19.10;97.80;;;;;;5111060;28;20409;-84
2021/07/04 00:33:46;;;;;;;10.40;6.80;;;19.20;97.60;;;;;;5111200;28;20444;-84
2021/07/04 00:36:12;;;;;;;12.10;6.83;;;19.20;97.50;;;;;;5110890;28;20192;-84
2021/07/04 00:38:38;;;;;;;13.23;6.63;;;19.20;97.10;;;;;;5110822;28;20175;-84
2021/07/04 00:41:04;;;;;;;12.60;6.43;;;19.20;96.70;;;;;;5111219;28;20402;-84
2021/07/04 00:43:30;;;;;;;10.55;5.55;;;19.30;96.30;;;;;;5110662;28;20473;-84
2021/07/04 00:45:56;;;;;;;12.43;6.30;;;19.30;96.20;;;;;;5110615;28;20183;-84
2021/07/04 00:48:22;;;;;;;10.90;6.05;;;19.40;96.00;;;;;;5110594;28;20172;-84
2021/07/04 00:50:49;;;;;;;9.82;5.70;;;19.40;96.00;;;;;;5110382;28;20248;-84
2021/07/04 00:53:16;;;;;;;10.70;6.00;;;19.40;96.10;;;;;;5110561;28;20195;-84
2021/07/04 00:55:42;;;;;;;10.80;6.38;;;19.40;96.40;;;;;;5110560;28;20204;-84
2021/07/04 00:58:07;;;;;;;10.70;6.27;;;19.40;96.40;;;;;;5110467;28;20217;-85
2021/07/04 01:00:36;;;;;;;9.90;6.40;;;19.40;96.40;;;;;;5110336;28;20409;-84
2021/07/04 01:03:02;;;;;;;8.25;5.50;;;19.40;96.20;;;;;;5110284;28;20847;-84
2021/07/04 01:05:30;;;;;;;8.50;5.65;;;19.40;96.10;;;;;;5110539;28;20697;-84
2021/07/04 01:07:57;;;;;;;8.27;5.45;;;19.40;96.20;;;;;;5110099;28;20179;-84
2021/07/04 01:10:26;;;;;;;12.52;6.70;;;19.40;96.30;;;;;;5110444;28;20536;-84
2021/07/04 01:12:53;;;;;;;9.35;5.60;;;19.40;96.20;;;;;;5110103;28;20195;-84
2021/07/04 01:15:20;;;;;;;12.88;6.80;;;19.30;96.10;;;;;;5110302;28;20210;-84
2021/07/04 01:17:48;;;;;;;12.45;6.28;;;19.30;96.10;;;;;;5110220;28;20593;-83
2021/07/04 01:20:19;;;;;;;9.82;5.68;;;19.30;96.10;;;;;;5110509;28;20274;-84
2021/07/04 01:23:02;;;;;;;12.43;5.72;;;19.30;96.20;;;;;;5110520;28;20662;-84
2021/07/04 01:25:30;;;;;;;12.60;6.72;;;19.30;96.40;;;;;;5110443;28;20203;-84
2021/07/04 01:27:57;;;;;;;14.57;6.00;;;19.20;96.50;;;;;;5112131;28;20715;-85
2021/07/04 01:30:24;;;;;;;11.07;6.28;;;19.10;96.60;;;;;;5114321;28;20179;-85
2021/07/04 01:32:51;;;;;;;6.88;5.30;;;19.10;96.70;;;;;;5114937;28;20196;-84
2021/07/04 01:35:17;;;;;;;11.48;6.53;;;19.10;96.80;;;;;;5114877;28;20202;-83
2021/07/04 01:37:43;;;;;;;9.45;6.30;;;19.10;96.90;;;;;;5114708;28;20179;-84
2021/07/04 01:40:10;;;;;;;11.68;6.55;;;19.10;97.00;;;;;;5114390;28;20164;-84
2021/07/04 01:42:37;;;;;;;10.65;6.05;;;19.00;96.90;;;;;;5114347;28;20179;-84
2021/07/04 01:45:04;;;;;;;16.38;7.25;;;19.00;97.00;;;;;;5098291;28;20164;-84
2021/07/04 01:47:30;;;;;;;11.32;6.68;;;18.90;97.30;;;;;;5114361;28;20179;-84
2021/07/04 01:49:56;;;;;;;12.07;7.97;;;18.90;97.70;;;;;;5113898;28;20263;-84
2021/07/04 01:52:22;;;;;;;11.93;7.17;;;18.90;97.70;;;;;;5114170;28;20406;-84
2021/07/04 01:54:47;;;;;;;12.30;5.87;;;18.90;97.70;;;;;;5114361;28;20556;-84
2021/07/04 01:57:13;;;;;;;9.00;6.80;;;18.90;97.70;;;;;;5113882;28;20558;-84
2021/07/04 01:59:41;;;;;;;13.43;5.87;;;18.90;97.70;;;;;;5114359;28;20709;-84
2021/07/04 02:02:06;;;;;;;11.43;6.25;;;18.80;97.70;;;;;;5113840;28;20770;-84
2021/07/04 02:04:41;;;;;;;10.50;6.77;;;18.80;97.80;;;;;;5113869;28;20188;-84
2021/07/04 02:07:14;;;;;;;10.65;6.03;;;18.80;97.80;;;;;;5113615;28;20405;-83
2021/07/04 02:09:47;;;;;;;10.80;6.15;;;18.90;97.40;;;;;;5113605;28;20167;-84
2021/07/04 02:12:15;;;;;;;10.65;5.88;;;18.80;97.50;;;;;;5113839;28;20176;-84
2021/07/04 02:14:41;;;;;;;11.45;6.30;;;18.80;97.80;;;;;;5113257;28;20245;-84
2021/07/04 02:17:07;;;;;;;11.88;6.38;;;18.70;97.90;;;;;;5114026;28;20188;-84
2021/07/04 02:19:35;;;;;;;13.67;6.17;;;18.60;97.90;;;;;;5113494;28;20171;-84
2021/07/04 02:22:01;;;;;;;10.18;5.90;;;18.60;98.30;;;;;;5113498;28;20540;-84
2021/07/04 02:24:27;;;;;;;9.60;5.80;;;18.50;98.60;;;;;;5113203;28;20195;-84
2021/07/04 02:26:53;;;;;;;10.40;5.68;;;18.50;98.30;;;;;;5113252;28;20167;-84
2021/07/04 02:29:19;;;;;;;11.80;5.90;;;18.60;98.00;;;;;;5113212;28;20246;-84
2021/07/04 02:31:45;;;;;;;11.27;6.40;;;18.60;97.80;;;;;;5113420;28;20183;-84
2021/07/04 02:34:12;;;;;;;10.82;6.22;;;18.60;97.80;;;;;;5112953;28;20437;-84
2021/07/04 02:36:37;;;;;;;12.25;5.80;;;18.70;97.60;;;;;;5113500;28;20196;-84
2021/07/04 02:39:04;;;;;;;9.13;5.33;;;18.60;97.40;;;;;;5112816;28;20804;-84
2021/07/04 02:41:31;;;;;;;8.98;5.70;;;18.60;97.60;;;;;;5113622;28;20414;-84
2021/07/04 02:43:57;;;;;;;10.35;6.38;;;18.50;98.20;;;;;;5112820;28;20220;-84
2021/07/04 02:46:23;;;;;;;12.17;7.03;;;18.40;98.60;;;;;;5112808;28;20260;-84
2021/07/04 02:48:48;;;;;;;10.83;6.80;;;18.30;98.90;;;;;;5113005;28;20179;-84
2021/07/04 02:51:14;;;;;;;9.93;6.13;;;18.30;98.80;;;;;;5112862;28;20176;-84
2021/07/04 02:53:40;;;;;;;8.70;5.83;;;18.30;98.90;;;;;;5112695;28;20199;-84
2021/07/04 02:56:06;;;;;;;10.47;6.10;;;18.30;98.60;;;;;;5112519;28;20924;-85
2021/07/04 02:58:31;;;;;;;9.90;5.77;;;18.30;98.60;;;;;;5112947;28;20259;-85
2021/07/04 03:00:57;;;;;;;13.80;6.27;;;18.30;98.30;;;;;;5113381;28;20179;-85
2021/07/04 03:03:23;;;;;;;11.90;6.20;;;18.40;98.00;;;;;;5114422;28;20241;-84
2021/07/04 03:05:49;;;;;;;10.50;6.83;;;18.40;98.00;;;;;;5113797;28;20463;-84
2021/07/04 03:08:15;;;;;;;10.50;6.17;;;18.40;97.90;;;;;;5113953;28;20210;-85
2021/07/04 03:10:41;;;;;;;19.33;6.55;;;18.40;98.20;;;;;;5113399;28;20418;-84
2021/07/04 03:13:06;;;;;;;12.17;5.90;;;18.40;98.90;;;;;;5113222;28;20220;-84
2021/07/04 03:15:32;;;;;;;9.50;7.07;;;18.30;99.10;;;;;;5113259;28;20975;-85
2021/07/04 03:17:58;;;;;;;18.63;7.17;;;18.40;99.10;;;;;;5113336;28;20258;-84
2021/07/04 03:20:24;;;;;;;13.27;7.23;;;18.40;99.10;;;;;;5113115;28;20168;-85
2021/07/04 03:22:49;;;;;;;11.53;6.73;;;18.40;99.10;;;;;;5113260;28;20198;-85
2021/07/04 03:25:17;;;;;;;10.80;6.70;;;18.40;99.10;;;;;;5113110;28;20453;-84
2021/07/04 03:27:43;;;;;;;12.55;6.55;;;18.40;99.10;;;;;;5112640;28;20965;-85
2021/07/04 03:30:12;;;;;;;14.88;7.40;;;18.40;99.10;;;;;;5112362;28;20203;-85
2021/07/04 03:32:39;;;;;;;13.20;6.80;;;18.40;99.10;;;;;;5113007;28;20599;-84
2021/07/04 03:35:09;;;;;;;14.20;7.35;;;18.40;99.10;;;;;;5111590;28;20172;-85
2021/07/04 03:37:36;;;;;;;10.55;6.43;;;18.40;99.10;;;;;;5111417;28;20259;-84
2021/07/04 03:40:04;;;;;;;13.38;7.15;;;18.40;99.10;;;;;;5112102;28;20608;-84
2021/07/04 03:42:31;;;;;;;13.45;6.05;;;18.40;99.10;;;;;;5095905;28;20510;-84
2021/07/04 03:44:56;;;;;;;12.00;7.00;;;18.50;99.10;;;;;;5110909;28;20171;-84
2021/07/04 03:47:25;;;;;;;12.60;6.90;;;18.50;99.10;;;;;;5111429;28;20213;-84
2021/07/04 03:49:58;;;;;;;13.57;6.40;;;18.50;99.10;;;;;;5111262;28;20232;-85
2021/07/04 03:52:24;;;;;;;13.93;7.90;;;18.50;99.10;;;;;;5111648;28;20221;-85
2021/07/04 03:54:49;;;;;;;14.93;7.40;;;18.60;99.10;;;;;;5111692;28;20199;-85
2021/07/04 03:57:21;;;;;;;14.90;7.60;;;18.60;99.10;;;;;;5111091;28;20534;-85
2021/07/04 03:59:56;;;;;;;17.00;8.00;;;18.60;99.10;;;;;;5111240;28;20409;-85
2021/07/04 04:02:22;;;;;;;13.35;8.02;;;18.60;99.10;;;;;;5111174;28;20162;-85
2021/07/04 04:04:49;;;;;;;14.82;7.72;;;18.60;99.10;;;;;;5111112;28;20194;-85
2021/07/04 04:07:15;;;;;;;12.90;8.05;;;18.60;99.10;;;;;;5110979;28;20183;-85
2021/07/04 04:09:42;;;;;;;17.63;7.33;;;18.70;99.10;;;;;;5111504;28;20172;-84
2021/07/04 04:12:09;;;;;;;12.98;8.35;;;18.80;99.10;;;;;;5111227;28;20406;-85
2021/07/04 04:14:36;;;;;;;17.90;7.70;;;18.80;99.10;;;;;;5110994;28;20686;-84
2021/07/04 04:17:02;;;;;;;16.33;8.50;;;18.90;99.10;;;;;;5110688;28;20241;-85
2021/07/04 04:19:28;;;;;;;16.73;8.63;;;18.90;99.10;;;;;;5111352;28;20199;-84
2021/07/04 04:21:54;;;;;;;23.40;7.67;;;19.00;99.10;;;;;;5111599;28;20168;-84
2021/07/04 04:24:20;;;;;;;13.50;7.23;;;19.00;99.10;;;;;;5111223;28;20418;-86
2021/07/04 04:26:46;;;;;;;13.43;7.37;;;19.10;99.10;;;;;;5111645;28;20188;-87
2021/07/04 04:29:12;;;;;;;10.77;7.22;;;19.20;99.10;;;;;;5111102;28;20262;-87
2021/07/04 04:31:38;;;;;;;14.10;7.67;;;19.30;99.10;;;;;;5111674;28;20268;-87
2021/07/04 04:34:04;;;;;;;13.47;7.50;;;19.30;99.10;;;;;;5111175;28;20429;-89
2021/07/04 04:36:29;;;;;;;13.80;7.83;;;19.40;99.10;;;;;;5111202;28;20230;-89
2021/07/04 04:38:55;;;;;;;14.70;7.57;;;19.40;98.90;;;;;;5111291;28;20463;-90
2021/07/04 04:41:24;;;;;;;12.20;7.10;;;19.40;98.60;;;;;;5111240;28;20418;-89
2021/07/04 04:43:50;;;;;;;11.50;7.38;;;19.40;98.90;;;;;;5110896;28;20192;-91
2021/07/04 04:46:15;;;;;;;16.37;7.13;;;19.40;98.90;;;;;;5111781;28;20182;-91
2021/07/04 04:48:43;;;;;;;13.73;8.17;;;19.40;98.70;;;;;;5112699;28;20262;-90
2021/07/04 04:51:09;;;;;;;14.35;8.25;;;19.40;98.70;;;;;;5111380;28;20204;-91
2021/07/04 04:53:34;;;;;;;13.00;7.20;;;19.50;98.90;;;;;;5111043;28;20199;-90
2021/07/04 04:56:00;;;;;;;12.63;7.53;;;19.50;98.70;;;;;;5110578;28;20615;-87
2021/07/04 04:58:26;;;;;;;11.60;6.80;;;19.50;98.50;;;;;;5110199;28;20976;-87
2021/07/04 05:00:52;;;;;;;12.57;7.83;;;19.50;98.60;;;;;;5110683;28;20529;-88
2021/07/04 05:03:18;;;;;;;12.70;7.27;;;19.60;98.10;;;;;;5109859;28;20941;-88
2021/07/04 05:05:44;;;;;;;14.27;8.00;;;19.60;98.20;;;;;;5110604;28;20175;-88
2021/07/04 05:08:09;;;;;;;12.80;7.50;;;19.60;98.40;;;;;;5110133;28;20182;-88
2021/07/04 05:10:35;;;;;;;12.63;6.90;;;19.60;98.40;;;;;;5110125;28;20215;-88
2021/07/04 05:13:01;;;;;;;14.07;7.67;;;19.60;97.70;;;;;;5110203;28;20202;-88
2021/07/04 05:15:27;;;;;;;13.33;6.70;;;19.50;97.80;;;;;;5110113;28;20295;-88
2021/07/04 05:17:52;;;;;;;9.65;5.70;;;19.60;97.50;;;;;;5110226;28;20266;-87
2021/07/04 05:20:18;;;;;;;10.20;6.23;;;19.60;97.20;;;;;;5110127;28;20164;-88
2021/07/04 05:22:44;;;;;;;7.73;4.80;;;19.60;97.30;;;;;;5110032;28;20174;-88
2021/07/04 05:25:11;;;;;;;8.82;4.70;;;19.70;97.00;;;;;;5109623;28;20444;-87
2021/07/04 05:27:37;;;;;;;10.20;5.20;;;19.60;96.80;;;;;;5109983;28;20175;-88
2021/07/04 05:30:04;;;;;;;9.70;5.78;;;19.60;96.50;;;;;;5110332;28;20163;-88
2021/07/04 05:32:30;;;;;;;10.30;5.70;;;19.60;96.00;;;;;;5110253;28;20701;-88
2021/07/04 05:34:56;;;;;;;8.23;5.17;;;19.60;95.70;;;;;;5110188;28;20172;-88
2021/07/04 05:37:22;;;;;;;10.80;5.60;;;19.60;95.80;;;;;;5109887;28;20457;-88
2021/07/04 05:39:48;;;;;;;9.67;5.50;;;19.70;95.90;;;;;;5109682;28;20686;-88
2021/07/04 05:42:13;;;;;;;13.60;6.50;;;19.80;96.00;;;;;;5109763;28;20749;-88
2021/07/04 05:44:39;;;;;;;10.77;5.07;;;19.80;96.10;;;;;;5110619;28;20426;-88
2021/07/04 05:47:06;;;;;;;9.10;4.80;;;19.80;95.60;;;;;;5109824;28;20414;-88
2021/07/04 05:49:31;;;;;;;10.50;5.20;;;19.90;95.50;;;;;;5110108;28;20168;-88
2021/07/04 05:51:57;;;;;;;11.63;6.20;;;20.10;95.00;;;;;;5110042;28;20263;-88
2021/07/04 05:54:23;;;;;;;9.20;5.80;;;20.20;94.50;;;;;;5110299;28;20200;-88
2021/07/04 05:56:49;;;;;;;10.87;5.33;;;20.30;94.40;;;;;;5109613;28;20517;-88
2021/07/04 05:59:14;;;;;;;12.60;6.20;;;20.40;94.40;;;;;;5109758;28;20172;-88
2021/07/04 06:01:40;;;;;;;12.70;6.17;;;20.50;93.70;;;;;;5109424;28;20168;-88
2021/07/04 06:04:06;;;;;;;9.57;5.43;;;20.70;93.00;;;;;;5111052;28;20434;-88
2021/07/04 06:06:32;;;;;;;12.30;5.90;;;20.80;92.90;;;;;;5110763;28;20175;-88
2021/07/04 06:08:58;;;;;;;10.40;5.95;;;20.90;91.90;;;;;;5109812;28;20413;-88
2021/07/04 06:11:24;;;;;;;13.70;6.13;;;21.10;91.90;;;;;;5109403;28;20171;-89
2021/07/04 06:13:50;;;;;;;10.20;5.03;;;21.10;91.30;;;;;;5110449;28;20429;-89
2021/07/04 06:16:16;;;;;;;10.03;6.30;;;21.10;91.30;;;;;;5112844;28;20207;-88
2021/07/04 06:18:42;;;;;;;9.87;5.97;;;21.10;90.90;;;;;;5113118;28;20413;-88
2021/07/04 06:21:07;;;;;;;8.97;5.93;;;21.10;91.20;;;;;;5113313;28;20406;-88
2021/07/04 06:23:33;;;;;;;8.50;5.17;;;21.20;91.50;;;;;;5112931;28;20192;-87
2021/07/04 06:25:59;;;;;;;11.83;5.70;;;21.30;91.30;;;;;;5113186;28;20412;-88
2021/07/04 06:28:25;;;;;;;10.20;6.67;;;21.40;90.90;;;;;;5112939;28;20373;-88
2021/07/04 06:30:50;;;;;;;11.37;5.73;;;21.40;90.10;;;;;;5112864;28;20263;-89
2021/07/04 06:33:16;;;;;;;7.23;5.17;;;21.50;89.80;;;;;;5112779;28;20192;-88
2021/07/04 06:35:42;;;;;;;8.70;5.43;;;21.60;90.20;;;;;;5112758;28;20449;-88
2021/07/04 06:38:08;;;;;;;9.93;6.40;;;21.60;89.60;;;;;;5112944;28;20213;-89
2021/07/04 06:40:34;;;;;;;10.50;6.07;;;21.80;88.90;;;;;;5112945;28;20502;-88
2021/07/04 06:43:00;;;;;;;8.07;5.00;;;;;;;;;;5112556;28;20694;-87
2021/07/04 06:45:26;;;;;;;25.08;5.80;;;22.10;85.90;;;;;;5095854;28;20172;-87
2021/07/04 06:47:51;;;;;;;11.83;5.63;;;22.20;86.30;;;;;;5112499;28;20179;-87
2021/07/04 06:50:19;;;;;;;11.30;5.47;;;22.30;85.60;;;;;;5112335;28;20225;-87
2021/07/04 06:52:46;;;;;;;10.98;5.78;;;22.40;85.50;;;;;;5112496;28;20414;-87
2021/07/04 06:55:12;;;;;;;8.40;4.60;;;22.60;85.30;;;;;;5112082;28;20185;-83
2021/07/04 06:57:38;;;;;;;7.53;5.43;;;22.60;85.20;;;;;;5112316;28;20172;-88
2021/07/04 07:00:13;;;;;;;8.55;5.30;;;22.60;85.10;;;;;;5112169;28;20554;-87
2021/07/04 07:02:39;;;;;;;7.38;5.25;;;22.60;83.50;;;;;;5112181;28;20167;-87
2021/07/04 07:05:07;;;;;;;7.75;5.10;;;22.60;85.50;;;;;;5111998;28;20544;-88
2021/07/04 07:07:33;;;;;;;10.45;5.40;;;22.70;84.50;;;;;;5112007;28;20175;-87
2021/07/04 07:09:59;;;;;;;9.90;5.28;;;22.80;84.40;;;;;;5111580;28;20263;-87
2021/07/04 07:12:25;;;;;;;8.77;5.30;;;23.00;84.20;;;;;;5112113;28;20382;-87
2021/07/04 07:14:51;;;;;;;7.27;4.80;;;23.10;83.10;;;;;;5111869;28;20230;-87
2021/07/04 07:17:17;;;;;;;7.33;4.73;;;23.10;83.70;;;;;;5111608;28;20498;-87
2021/07/04 07:19:43;;;;;;;7.32;4.70;;;23.20;83.30;;;;;;5111817;28;20406;-89
2021/07/04 07:22:09;;;;;;;12.40;5.03;;;23.20;82.40;;;;;;5111794;28;20707;-89
2021/07/04 07:24:39;;;;;;;12.07;6.13;;;23.30;83.30;;;;;;5111302;28;20647;-89
2021/07/04 07:27:07;;;;;;;7.78;4.93;;;23.40;81.90;;;;;;5095403;28;20652;-89
2021/07/04 07:29:33;;;;;;;7.00;4.63;;;23.50;83.50;;;;;;5111381;28;20667;-89
2021/07/04 07:31:59;;;;;;;8.20;5.63;;;23.70;80.80;;;;;;5111538;28;20176;-89
2021/07/04 07:34:26;;;;;;;9.02;5.63;;;23.90;80.80;;;;;;5111232;28;20596;-90
2021/07/04 07:36:52;;;;;;;8.02;5.05;;;24.10;80.30;;;;;;5111603;28;20199;-89
2021/07/04 07:39:18;;;;;;;6.80;4.78;;;24.40;79.20;;;;;;5111913;28;20167;-90
2021/07/04 07:41:44;;;;;;;8.77;4.97;;;24.50;78.80;;;;;;5111407;28;20168;-90
2021/07/04 07:44:12;;;;;;;10.35;5.00;;;24.50;76.90;;;;;;5111770;28;20782;-90
2021/07/04 07:46:38;;;;;;;9.25;5.38;;;24.50;77.40;;;;;;5111829;28;20174;-90
2021/07/04 07:49:04;;;;;;;8.27;5.10;;;24.40;77.40;;;;;;5111776;28;20175;-90
2021/07/04 07:51:30;;;;;;;9.32;5.88;;;24.40;77.10;;;;;;5112249;28;20180;-90
2021/07/04 07:53:56;;;;;;;9.15;5.20;;;24.40;77.10;;;;;;5111708;28;20283;-89
2021/07/04 07:56:22;;;;;;;9.97;5.47;;;24.40;76.40;;;;;;5111328;28;20295;-90
2021/07/04 07:58:48;;;;;;;7.80;4.80;;;24.50;76.40;;;;;;5111368;28;20399;-89
2021/07/04 08:01:15;;;;;;;8.50;5.40;;;24.60;75.30;;;;;;5111137;28;20175;-89
2021/07/04 08:03:41;;;;;;;7.72;5.10;;;24.60;74.10;;;;;;5111071;28;20191;-88
2021/07/04 08:06:07;;;;;;;7.38;4.63;;;24.80;75.10;;;;;;5107557;28;20175;-89
2021/07/04 08:08:33;;;;;;;7.10;4.80;;;24.90;73.50;;;;;;5094337;28;20254;-88
2021/07/04 08:10:59;;;;;;;7.90;4.90;;;25.00;73.50;;;;;;5094176;28;20661;-89
2021/07/04 08:13:25;;;;;;;7.55;5.15;;;25.00;73.50;;;;;;5093999;28;20441;-88
2021/07/04 08:15:51;;;;;;;12.38;5.10;;;25.10;73.00;;;;;;5093550;28;20207;-88
2021/07/04 08:18:17;;;;;;;6.47;4.90;;;25.10;71.90;;;;;;5094060;28;20225;-88
2021/07/04 08:20:42;;;;;;;9.17;5.40;;;25.20;72.10;;;;;;5094144;28;20176;-88
2021/07/04 08:23:08;;;;;;;8.60;5.73;;;25.30;72.80;;;;;;5093871;28;20191;-88
2021/07/04 08:25:35;;;;;;;8.10;5.10;;;25.40;71.30;;;;;;5093976;28;20221;-88
2021/07/04 08:28:01;;;;;;;11.63;4.85;;;25.40;72.00;;;;;;5093721;28;20458;-88
2021/07/04 08:30:27;;;;;;;7.45;4.97;;;25.50;71.00;;;;;;5094273;28;20306;-88
2021/07/04 08:32:53;;;;;;;9.30;6.43;;;25.80;70.50;;;;;;5093981;28;20678;-88
2021/07/04 08:35:19;;;;;;;9.90;6.07;;;26.00;70.10;;;;;;5093518;28;20410;-88
2021/07/04 08:37:45;;;;;;;10.50;5.20;;;26.10;67.60;;;;;;5093167;28;20640;-88
2021/07/04 08:40:11;;;;;;;7.20;4.88;;;26.20;69.10;;;;;;5093121;28;20414;-88
2021/07/04 08:42:37;;;;;;;7.95;5.15;;;26.30;67.60;;;;;;5093501;28;20238;-88
2021/07/04 08:45:04;;;;;;;6.40;4.67;;;26.50;67.60;;;;;;5093174;28;20168;-88
2021/07/04 08:47:30;;;;;;;7.18;4.68;;;26.60;66.90;;;;;;5093535;28;20508;-88
2021/07/04 08:49:56;;;;;;;5.20;3.90;;;26.80;66.90;;;;;;5093511;28;20270;-88
2021/07/04 08:52:23;;;;;;;7.05;4.25;;;27.00;65.60;;;;;;5093304;28;20421;-87
2021/07/04 08:54:49;;;;;;;8.50;4.78;;;27.20;64.60;;;;;;5093369;28;20282;-86
2021/07/04 08:57:18;;;;;;;7.73;5.77;;;27.30;64.50;;;;;;5093155;28;20230;-86
2021/07/04 08:59:47;;;;;;;7.30;5.40;;;27.50;62.80;;;;;;5093444;28;20967;-87
2021/07/04 09:02:28;;;;;;;8.77;5.07;;;27.60;62.80;;;;;;5093421;28;20254;-87
2021/07/04 09:05:01;;;;;;;8.70;5.28;;;27.60;62.60;;;;;;5093658;28;20167;-87
2021/07/04 09:07:28;;;;;;;7.03;4.72;;;27.80;63.00;;;;;;5092875;28;20186;-87
2021/07/04 09:10:11;;;;;;;7.15;4.82;;;28.00;60.60;;;;;;5093401;28;20175;-87
2021/07/04 09:12:46;;;;;;;6.72;5.43;;;27.80;62.60;;;;;;5093219;28;20163;-87
2021/07/04 09:15:25;;;;;;;7.97;4.25;;;27.40;62.80;;;;;;5092864;28;20187;-87
2021/07/04 09:17:53;;;;;;;9.00;5.03;;;27.20;63.10;;;;;;5093031;28;20172;-87
2021/07/04 09:20:29;;;;;;;12.98;5.03;;;27.00;64.20;;;;;;5093282;28;20180;-87
2021/07/04 09:22:56;;;;;;;7.15;3.88;;;26.90;65.30;;;;;;5093401;28;20213;-87
2021/07/04 09:25:30;;;;;;;7.82;3.80;;;26.70;65.90;;;;;;5093157;28;20833;-87
2021/07/04 09:28:10;;;;;;;6.65;4.10;;;26.70;63.70;;;;;;5092774;28;20164;-87
2021/07/04 09:30:39;;;;;;;5.25;3.90;;;26.60;65.80;;;;;;5093175;28;20171;-87
2021/07/04 09:33:14;;;;;;;7.40;4.50;;;26.60;65.20;;;;;;5092655;28;20607;-87
2021/07/04 09:35:51;;;;;;;5.43;3.60;;;26.70;66.60;;;;;;5093060;28;20187;-87
2021/07/04 09:38:17;;;;;;;7.38;5.15;;;26.80;64.60;;;;;;5093126;28;20160;-87
2021/07/04 09:40:44;;;;;;;5.97;4.10;;;26.90;64.40;;;;;;5096864;28;20164;-88
2021/07/04 09:43:16;;;;;;;6.20;4.20;;;26.90;65.50;;;;;;5093277;28;20236;-88
2021/07/04 09:46:01;;;;;;;7.70;4.53;;;27.00;66.00;;;;;;5092542;28;20263;-87
2021/07/04 09:48:30;;;;;;;7.88;4.22;;;27.20;63.70;;;;;;5093120;28;20187;-88
2021/07/04 09:50:59;;;;;;;7.30;4.07;;;27.10;63.90;;;;;;5096346;28;20183;-87
2021/07/04 09:53:38;;;;;;;8.27;5.03;;;27.10;65.60;;;;;;5096258;28;20222;-88
2021/07/04 09:56:18;;;;;;;9.55;4.47;;;27.00;64.90;;;;;;5100348;28;20694;-88
2021/07/04 09:58:47;;;;;;;7.20;4.78;;;27.10;64.80;;;;;;5096067;28;20156;-88
2021/07/04 10:01:37;;;;;;;7.13;4.18;;;27.30;65.30;;;;;;5095919;28;20167;-88
2021/07/04 10:04:05;;;;;;;7.53;4.32;;;27.70;61.60;;;;;;5095624;28;20188;-88
2021/07/04 10:06:50;;;;;;;10.15;4.90;;;28.10;62.00;;;;;;5095733;28;20229;-87
2021/07/04 10:09:18;;;;;;;6.88;4.35;;;28.10;60.30;;;;;;5095772;28;20191;-88
2021/07/04 10:11:44;;;;;;;5.22;4.32;;;28.20;61.70;;;;;;5095741;28;20172;-87
2021/07/04 10:14:10;;;;;;;6.53;3.92;;;28.20;59.20;;;;;;5095682;28;20215;-87
2021/07/04 10:16:37;;;;;;;10.40;4.53;;;28.10;60.20;;;;;;5096009;28;20263;-85
2021/07/04 10:19:04;;;;;;;6.25;3.97;;;28.00;62.40;;;;;;5095730;28;20197;-86
2021/07/04 10:21:34;;;;;;;5.35;3.50;;;27.80;60.50;;;;;;5095595;28;20626;-86
2021/07/04 10:24:00;;;;;;;13.95;8.07;;;27.80;61.30;;;;;;5095842;28;20188;-86
2021/07/04 10:26:28;;;;;;;5.85;3.92;;;27.80;61.40;;;;;;5095612;28;20186;-86
2021/07/04 10:28:58;;;;;;;5.97;4.38;;;27.70;61.40;;;;;;5095624;28;20576;-86
2021/07/04 10:31:30;;;;;;;5.63;4.07;;;27.70;62.60;;;;;;5095716;28;20196;-87
2021/07/04 10:34:16;;;;;;;5.25;3.83;;;27.70;62.10;;;;;;5096052;28;20245;-85
2021/07/04 10:37:02;;;;;;;7.68;4.85;;;27.40;61.30;;;;;;5097224;28;20195;-84
2021/07/04 10:39:34;;;;;;;8.95;4.15;;;27.40;63.40;;;;;;5097350;28;20176;-84
2021/07/04 10:42:03;;;;;;;6.53;4.30;;;27.30;63.40;;;;;;5097201;28;20172;-83
2021/07/04 10:44:42;;;;;;;5.78;3.42;;;27.30;63.50;;;;;;5096937;28;20692;-83
2021/07/04 10:47:12;;;;;;;5.95;4.20;;;27.20;61.90;;;;;;5096860;28;20167;-82
2021/07/04 10:49:46;;;;;;;5.18;3.45;;;27.20;61.90;;;;;;5097304;28;20175;-85
2021/07/04 10:52:12;;;;;;;3.90;3.08;;;27.20;64.10;;;;;;5096589;28;20180;-84
2021/07/04 10:54:41;;;;;;;14.17;4.47;;;27.30;63.00;;;;;;5097639;28;20249;-83
2021/07/04 10:57:16;;;;;;;7.82;3.70;;;27.20;62.70;;;;;;5096498;28;20680;-84
2021/07/04 10:59:50;;;;;;;6.03;3.72;;;27.20;63.00;;;;;;5096998;28;20155;-85
2021/07/04 11:02:59;;;;;;;5.68;3.53;;;27.20;64.10;;;;;;5095566;28;20544;-84
2021/07/04 11:05:35;;;;;;;5.45;3.60;;;27.20;62.40;;;;;;5094123;28;20245;-84
2021/07/04 11:08:18;;;;;;;9.80;4.10;;;27.00;64.50;;;;;;5095815;28;20155;-86
2021/07/04 11:10:50;;;;;;;4.72;3.75;;;27.00;65.20;;;;;;5094634;28;20622;-86
2021/07/04 11:13:15;;;;;;;6.95;4.40;;;27.10;66.90;;;;;;5094813;28;20194;-85
2021/07/04 11:15:48;;;;;;;4.80;3.97;;;27.10;63.40;;;;;;5094734;28;20204;-86
2021/07/04 11:18:15;;;;;;;4.47;3.22;;;27.20;63.30;;;;;;5094811;28;20234;-85
2021/07/04 11:20:42;;;;;;;8.10;3.35;;;27.10;62.40;;;;;;5094151;28;20713;-86
2021/07/04 11:23:10;;;;;;;5.20;3.95;;;27.10;63.50;;;;;;5094406;28;20190;-86
2021/07/04 11:25:45;;;;;;;5.60;3.85;;;27.10;63.90;;;;;;5094494;28;20271;-86
2021/07/04 11:28:17;;;;;;;4.72;3.63;;;27.30;60.00;;;;;;5094361;28;20168;-87
2021/07/04 11:30:42;;;;;;;4.40;3.28;;;27.30;61.90;;;;;;5094485;28;20266;-87
2021/07/04 11:33:39;;;;;;;4.90;3.37;;;27.50;61.70;;;;;;5094334;28;20242;-87
2021/07/04 11:36:27;;;;;;;4.22;3.45;;;27.50;57.90;;;;;;5094540;28;20204;-86
2021/07/04 11:38:59;;;;;;;4.70;3.35;;;27.50;58.90;;;;;;5094529;28;20650;-86
2021/07/04 11:41:30;;;;;;;6.05;3.53;;;27.50;58.30;;;;;;5094172;28;20628;-86
2021/07/04 11:43:58;;;;;;;4.78;2.90;;;27.40;57.70;;;;;;5094385;28;20199;-87
2021/07/04 11:46:26;;;;;;;6.63;3.80;;;27.50;61.60;;;;;;5094425;28;20240;-86
2021/07/04 11:49:02;;;;;;;4.30;2.75;;;27.40;59.60;;;;;;5094672;28;20247;-86
2021/07/04 11:51:54;;;;;;;4.60;2.80;;;27.30;57.60;;;;;;5094331;28;20160;-86
2021/07/04 11:54:29;;;;;;;4.45;2.90;;;27.30;60.60;;;;;;5094246;28;20191;-86
2021/07/04 11:56:55;;;;;;;3.88;3.10;;;27.40;61.00;;;;;;5094047;28;20566;-86
2021/07/04 11:59:27;;;;;;;6.53;3.53;;;27.40;58.30;;;;;;5094106;28;20179;-86
2021/07/04 12:02:19;;;;;;;4.50;3.30;;;27.50;58.90;;;;;;5094153;28;20168;-86
2021/07/04 12:04:45;;;;;;;5.18;3.20;;;27.60;59.20;;;;;;5094073;28;20668;-86
2021/07/04 12:07:15;;;;;;;5.85;3.60;;;27.50;59.60;;;;;;5094330;28;20221;-85
2021/07/04 12:09:47;;;;;;;4.63;3.50;;;27.60;59.30;;;;;;5093788;28;20649;-86
2021/07/04 12:12:21;;;;;;;5.60;3.70;;;27.50;60.00;;;;;;5093384;28;20168;-85
2021/07/04 12:14:54;;;;;;;6.78;3.35;;;27.30;59.40;;;;;;5093466;28;20331;-85
2021/07/04 12:17:32;;;;;;;9.95;3.95;;;27.20;60.10;;;;;;5093485;28;20191;-85
2021/07/04 12:20:10;;;;;;;5.88;3.78;;;27.10;61.60;;;;;;5093718;28;20203;-85
2021/07/04 12:22:41;;;;;;;6.75;3.63;;;27.00;61.40;;;;;;5093454;28;20532;-85
2021/07/04 12:25:18;;;;;;;5.03;3.75;;;27.10;61.20;;;;;;5093504;28;20569;-85
2021/07/04 12:27:49;;;;;;;4.75;3.67;;;27.20;60.30;;;;;;5093631;28;20160;-85
2021/07/04 12:30:20;;;;;;;6.05;4.38;;;27.20;60.30;;;;;;5093590;28;20152;-85
2021/07/04 12:33:08;;;;;;;9.82;3.88;;;27.20;61.00;;;;;;5093563;28;20198;-87
2021/07/04 12:35:48;;;;;;;5.72;3.90;;;27.30;60.60;;;;;;5093222;28;20163;-86
2021/07/04 12:38:21;;;;;;;6.38;4.10;;;27.40;62.40;;;;;;5093627;28;20168;-85
2021/07/04 12:41:09;;;;;;;6.18;3.55;;;27.50;62.10;;;;;;5093863;28;20243;-84
2021/07/04 12:43:46;;;;;;;6.40;4.55;;;27.70;59.80;;;;;;5093925;28;20191;-85
2021/07/04 12:46:23;;;;;;;8.75;4.43;;;27.80;60.00;;;;;;5093740;28;20156;-85
2021/07/04 12:48:51;;;;;;;9.38;4.22;;;27.90;58.80;;;;;;5095066;28;20240;-85
2021/07/04 12:51:38;;;;;;;6.43;4.22;;;28.10;59.80;;;;;;5094692;28;20182;-84